sensor_id;sensor_type;location;lat;lon;timestamp;pressure;altitude;pressure_sealevel;temperature;humidity
23953;BME280;12163;49.316;6.092;2024-03-25T00:02:00;98788.53;;;7.16;70.07
23953;BME280;12163;49.316;6.092;2024-03-25T00:04:25;98783.41;;;7.20;69.78
23953;BME280;12163;49.316;6.092;2024-03-25T00:06:51;98797.09;;;7.18;69.92
23953;BME280;12163;49.316;6.092;2024-03-25T00:09:18;98800.84;;;7.17;69.94
23953;BME280;12163;49.316;6.092;2024-03-25T00:11:44;98800.63;;;7.14;70.17
23953;BME280;12163;49.316;6.092;2024-03-25T00:14:09;98802.81;;;7.12;69.81
23953;BME280;12163;49.316;6.092;2024-03-25T00:16:35;98802.00;;;7.11;70.10
23953;BME280;12163;49.316;6.092;2024-03-25T00:19:01;98798.47;;;7.16;70.03
23953;BME280;12163;49.316;6.092;2024-03-25T00:21:27;98798.22;;;7.12;70.25
23953;BME280;12163;49.316;6.092;2024-03-25T00:23:53;98793.16;;;7.11;69.85
23953;BME280;12163;49.316;6.092;2024-03-25T00:26:22;98801.72;;;7.08;70.27
23953;BME280;12163;49.316;6.092;2024-03-25T00:28:48;98795.34;;;7.04;70.24
23953;BME280;12163;49.316;6.092;2024-03-25T00:31:14;98783.00;;;7.03;69.98
23953;BME280;12163;49.316;6.092;2024-03-25T00:33:40;98784.09;;;7.02;70.73
23953;BME280;12163;49.316;6.092;2024-03-25T00:36:05;98790.28;;;7.02;70.77
23953;BME280;12163;49.316;6.092;2024-03-25T00:38:31;98792.97;;;6.97;71.01
23953;BME280;12163;49.316;6.092;2024-03-25T00:40:57;98787.91;;;6.96;70.88
23953;BME280;12163;49.316;6.092;2024-03-25T00:43:23;98785.72;;;6.98;71.13
23953;BME280;12163;49.316;6.092;2024-03-25T00:45:48;98786.53;;;6.98;71.11
23953;BME280;12163;49.316;6.092;2024-03-25T00:48:14;98785.22;;;6.96;71.38
23953;BME280;12163;49.316;6.092;2024-03-25T00:50:40;98780.94;;;6.95;71.76
23953;BME280;12163;49.316;6.092;2024-03-25T00:53:05;98778.53;;;6.93;71.31
23953;BME280;12163;49.316;6.092;2024-03-25T00:55:33;98781.50;;;6.92;71.66
23953;BME280;12163;49.316;6.092;2024-03-25T00:58:02;98788.47;;;6.93;71.45
23953;BME280;12163;49.316;6.092;2024-03-25T01:00:27;98773.97;;;6.94;71.58
23953;BME280;12163;49.316;6.092;2024-03-25T01:02:53;98777.72;;;6.93;71.63
23953;BME280;12163;49.316;6.092;2024-03-25T01:05:18;98780.94;;;6.95;72.21
23953;BME280;12163;49.316;6.092;2024-03-25T01:07:44;98771.81;;;6.96;71.77
23953;BME280;12163;49.316;6.092;2024-03-25T01:10:10;98771.28;;;6.94;71.54
23953;BME280;12163;49.316;6.092;2024-03-25T01:12:35;98760.59;;;6.89;71.80
23953;BME280;12163;49.316;6.092;2024-03-25T01:15:01;98763.31;;;6.84;71.95
23953;BME280;12163;49.316;6.092;2024-03-25T01:17:28;98759.06;;;6.78;72.28
23953;BME280;12163;49.316;6.092;2024-03-25T01:19:54;98751.28;;;6.76;72.22
23953;BME280;12163;49.316;6.092;2024-03-25T01:22:19;98743.28;;;6.71;72.79
23953;BME280;12163;49.316;6.092;2024-03-25T01:24:45;98752.19;;;6.67;72.96
23953;BME280;12163;49.316;6.092;2024-03-25T01:27:11;98750.59;;;6.66;73.10
23953;BME280;12163;49.316;6.092;2024-03-25T01:29:36;98747.38;;;6.64;73.27
23953;BME280;12163;49.316;6.092;2024-03-25T01:32:02;98738.25;;;6.65;73.34
23953;BME280;12163;49.316;6.092;2024-03-25T01:34:29;98744.41;;;6.65;72.87
23953;BME280;12163;49.316;6.092;2024-03-25T01:36:55;98747.94;;;6.61;73.26
23953;BME280;12163;49.316;6.092;2024-03-25T01:39:21;98747.44;;;6.54;73.11
23953;BME280;12163;49.316;6.092;2024-03-25T01:41:47;98745.59;;;6.50;73.36
23953;BME280;12163;49.316;6.092;2024-03-25T01:44:12;98747.75;;;6.48;73.62
23953;BME280;12163;49.316;6.092;2024-03-25T01:46:39;98748.56;;;6.48;73.48
23953;BME280;12163;49.316;6.092;2024-03-25T01:49:05;98745.38;;;6.46;74.04
23953;BME280;12163;49.316;6.092;2024-03-25T01:51:32;98743.75;;;6.45;73.82
23953;BME280;12163;49.316;6.092;2024-03-25T01:53:58;98743.75;;;6.45;73.63
23953;BME280;12163;49.316;6.092;2024-03-25T01:56:24;98732.22;;;6.45;73.72
23953;BME280;12163;49.316;6.092;2024-03-25T01:58:51;98735.19;;;6.43;74.16
23953;BME280;12163;49.316;6.092;2024-03-25T02:01:17;98738.41;;;6.45;73.99
23953;BME280;12163;49.316;6.092;2024-03-25T02:03:44;98735.72;;;6.45;74.49
23953;BME280;12163;49.316;6.092;2024-03-25T02:06:13;98727.13;;;6.48;74.02
23953;BME280;12163;49.316;6.092;2024-03-25T02:08:41;98730.31;;;6.50;74.35
23953;BME280;12163;49.316;6.092;2024-03-25T02:11:08;98727.09;;;6.53;74.27
23953;BME280;12163;49.316;6.092;2024-03-25T02:13:37;98727.03;;;6.58;74.36
23953;BME280;12163;49.316;6.092;2024-03-25T02:16:04;98723.53;;;6.63;74.65
23953;BME280;12163;49.316;6.092;2024-03-25T02:18:29;98726.75;;;6.64;74.94
23953;BME280;12163;49.316;6.092;2024-03-25T02:20:57;98717.34;;;6.67;74.04
23953;BME280;12163;49.316;6.092;2024-03-25T02:23:23;98713.59;;;6.63;74.16
23953;BME280;12163;49.316;6.092;2024-03-25T02:25:52;98715.53;;;6.58;74.21
23953;BME280;12163;49.316;6.092;2024-03-25T02:28:18;98712.09;;;6.52;74.04
23953;BME280;12163;49.316;6.092;2024-03-25T02:30:44;98710.22;;;6.48;73.90
23953;BME280;12163;49.316;6.092;2024-03-25T02:33:10;98698.22;;;6.45;73.92
23953;BME280;12163;49.316;6.092;2024-03-25T02:35:37;98701.41;;;6.42;73.74
23953;BME280;12163;49.316;6.092;2024-03-25T02:38:05;98695.31;;;6.37;74.42
23953;BME280;12163;49.316;6.092;2024-03-25T02:40:31;98691.34;;;6.29;74.19
23953;BME280;12163;49.316;6.092;2024-03-25T02:42:57;98694.06;;;6.24;74.69
23953;BME280;12163;49.316;6.092;2024-03-25T02:45:22;98694.59;;;6.21;74.62
23953;BME280;12163;49.316;6.092;2024-03-25T02:47:49;98691.16;;;6.16;74.66
23953;BME280;12163;49.316;6.092;2024-03-25T02:50:15;98689.03;;;6.13;74.51
23953;BME280;12163;49.316;6.092;2024-03-25T02:52:41;98680.50;;;6.11;74.72
23953;BME280;12163;49.316;6.092;2024-03-25T02:55:06;98686.66;;;6.06;75.13
23953;BME280;12163;49.316;6.092;2024-03-25T02:57:32;98689.38;;;6.01;75.34
23953;BME280;12163;49.316;6.092;2024-03-25T02:59:58;98687.78;;;6.00;75.39
23953;BME280;12163;49.316;6.092;2024-03-25T03:02:23;98680.78;;;5.99;75.55
23953;BME280;12163;49.316;6.092;2024-03-25T03:04:49;98689.38;;;6.01;75.22
23953;BME280;12163;49.316;6.092;2024-03-25T03:07:14;98679.47;;;6.02;75.39
23953;BME280;12163;49.316;6.092;2024-03-25T03:09:40;98683.47;;;6.04;75.04
23953;BME280;12163;49.316;6.092;2024-03-25T03:12:06;98682.66;;;6.04;75.09
23953;BME280;12163;49.316;6.092;2024-03-25T03:14:32;98685.63;;;6.02;75.55
23953;BME280;12163;49.316;6.092;2024-03-25T03:16:57;98672.50;;;6.01;75.31
23953;BME280;12163;49.316;6.092;2024-03-25T03:19:26;98678.66;;;6.01;75.71
23953;BME280;12163;49.316;6.092;2024-03-25T03:21:53;98679.47;;;6.02;75.22
23953;BME280;12163;49.316;6.092;2024-03-25T03:24:19;98691.75;;;6.03;75.05
23953;BME280;12163;49.316;6.092;2024-03-25T03:26:45;98679.72;;;6.05;75.62
23953;BME280;12163;49.316;6.092;2024-03-25T03:29:10;98683.69;;;6.08;75.49
23953;BME280;12163;49.316;6.092;2024-03-25T03:31:36;98684.78;;;6.07;75.11
23953;BME280;12163;49.316;6.092;2024-03-25T03:34:02;98678.13;;;6.04;74.81
23953;BME280;12163;49.316;6.092;2024-03-25T03:36:28;98679.19;;;6.03;75.42
23953;BME280;12163;49.316;6.092;2024-03-25T03:38:54;98674.34;;;6.05;75.42
23953;BME280;12163;49.316;6.092;2024-03-25T03:41:20;98674.34;;;6.05;75.57
23953;BME280;12163;49.316;6.092;2024-03-25T03:43:46;98678.13;;;6.04;75.38
23953;BME280;12163;49.316;6.092;2024-03-25T03:46:11;98675.19;;;6.01;75.01
23953;BME280;12163;49.316;6.092;2024-03-25T03:48:37;98674.34;;;6.05;74.98
23953;BME280;12163;49.316;6.092;2024-03-25T03:51:04;98677.03;;;6.05;74.76
23953;BME280;12163;49.316;6.092;2024-03-25T03:53:32;98672.72;;;6.09;75.54
23953;BME280;12163;49.316;6.092;2024-03-25T03:56:00;98676.19;;;6.15;75.13
23953;BME280;12163;49.316;6.092;2024-03-25T03:58:35;98681.75;;;6.18;75.01
23953;BME280;12163;49.316;6.092;2024-03-25T04:01:00;98670.78;;;6.20;74.77
23953;BME280;12163;49.316;6.092;2024-03-25T04:03:26;98679.34;;;6.22;74.76
23953;BME280;12163;49.316;6.092;2024-03-25T04:05:52;98666.47;;;6.24;74.95
23953;BME280;12163;49.316;6.092;2024-03-25T04:08:18;98667.50;;;6.28;75.05
23953;BME280;12163;49.316;6.092;2024-03-25T04:10:44;98667.22;;;6.29;74.70
23953;BME280;12163;49.316;6.092;2024-03-25T04:13:10;98664.56;;;6.29;74.60
23953;BME280;12163;49.316;6.092;2024-03-25T04:15:37;98663.47;;;6.30;74.70
23953;BME280;12163;49.316;6.092;2024-03-25T04:18:03;98654.63;;;6.30;75.00
23953;BME280;12163;49.316;6.092;2024-03-25T04:20:35;98651.44;;;6.28;74.84
23953;BME280;12163;49.316;6.092;2024-03-25T04:23:01;98652.28;;;6.23;74.38
23953;BME280;12163;49.316;6.092;2024-03-25T04:25:27;98660.84;;;6.20;74.77
23953;BME280;12163;49.316;6.092;2024-03-25T04:27:52;98648.31;;;6.16;74.62
23953;BME280;12163;49.316;6.092;2024-03-25T04:30:18;98654.22;;;6.13;74.91
23953;BME280;12163;49.316;6.092;2024-03-25T04:32:44;98645.94;;;6.09;74.69
23953;BME280;12163;49.316;6.092;2024-03-25T04:35:10;98657.47;;;6.05;74.66
23953;BME280;12163;49.316;6.092;2024-03-25T04:37:36;98655.66;;;6.00;74.79
23953;BME280;12163;49.316;6.092;2024-03-25T04:40:02;98652.97;;;5.95;74.87
23953;BME280;12163;49.316;6.092;2024-03-25T04:42:28;98657.28;;;5.91;74.57
23953;BME280;12163;49.316;6.092;2024-03-25T04:44:54;98653.31;;;5.84;74.89
23953;BME280;12163;49.316;6.092;2024-03-25T04:47:20;98654.66;;;5.76;74.89
23953;BME280;12163;49.316;6.092;2024-03-25T04:49:46;98660.88;;;5.67;75.03
23953;BME280;12163;49.316;6.092;2024-03-25T04:52:12;98657.97;;;5.58;74.98
23953;BME280;12163;49.316;6.092;2024-03-25T04:54:44;98672.19;;;5.49;75.16
23953;BME280;12163;49.316;6.092;2024-03-25T04:57:09;98666.59;;;5.40;75.38
23953;BME280;12163;49.316;6.092;2024-03-25T04:59:35;98669.81;;;5.32;75.50
23953;BME280;12163;49.316;6.092;2024-03-25T05:02:01;98671.44;;;5.28;75.75
23953;BME280;12163;49.316;6.092;2024-03-25T05:04:27;98669.06;;;5.22;75.75
23953;BME280;12163;49.316;6.092;2024-03-25T05:06:53;98679.22;;;5.15;75.70
23953;BME280;12163;49.316;6.092;2024-03-25T05:09:19;98673.09;;;5.09;75.74
23953;BME280;12163;49.316;6.092;2024-03-25T05:11:45;98678.22;;;5.01;76.24
23953;BME280;12163;49.316;6.092;2024-03-25T05:14:11;98677.66;;;4.94;76.31
23953;BME280;12163;49.316;6.092;2024-03-25T05:16:37;98680.09;;;4.86;75.96
23953;BME280;12163;49.316;6.092;2024-03-25T05:19:03;98679.56;;;4.79;76.19
23953;BME280;12163;49.316;6.092;2024-03-25T05:21:32;98682.25;;;4.74;76.30
23953;BME280;12163;49.316;6.092;2024-03-25T05:23:58;98681.44;;;4.68;76.64
23953;BME280;12163;49.316;6.092;2024-03-25T05:26:23;98676.88;;;4.64;76.69
23953;BME280;12163;49.316;6.092;2024-03-25T05:28:56;98680.63;;;4.58;76.78
23953;BME280;12163;49.316;6.092;2024-03-25T05:31:22;98672.09;;;4.56;77.33
23953;BME280;12163;49.316;6.092;2024-03-25T05:33:48;98674.75;;;4.56;77.29
23953;BME280;12163;49.316;6.092;2024-03-25T05:36:14;98679.56;;;4.59;77.09
23953;BME280;12163;49.316;6.092;2024-03-25T05:38:40;98674.75;;;4.61;77.72
23953;BME280;12163;49.316;6.092;2024-03-25T05:41:08;98673.16;;;4.65;77.24
23953;BME280;12163;49.316;6.092;2024-03-25T05:43:34;98678.78;;;4.68;77.57
23953;BME280;12163;49.316;6.092;2024-03-25T05:46:00;98675.31;;;4.73;77.92
23953;BME280;12163;49.316;6.092;2024-03-25T05:48:25;98669.69;;;4.79;77.80
23953;BME280;12163;49.316;6.092;2024-03-25T05:51:02;98667.38;;;5.41;80.19
23953;BME280;12163;49.316;6.092;2024-03-25T05:53:28;98658.50;;;6.52;80.63
23953;BME280;12163;49.316;6.092;2024-03-25T05:55:54;98656.78;;;7.18;78.57
23953;BME280;12163;49.316;6.092;2024-03-25T05:58:20;98654.41;;;7.40;76.40
23953;BME280;12163;49.316;6.092;2024-03-25T06:00:47;98653.66;;;7.58;75.48
23953;BME280;12163;49.316;6.092;2024-03-25T06:03:13;98662.00;;;7.75;74.61
23953;BME280;12163;49.316;6.092;2024-03-25T06:05:39;98650.84;;;7.86;73.63
23953;BME280;12163;49.316;6.092;2024-03-25T06:08:06;98643.59;;;7.68;71.89
23953;BME280;12163;49.316;6.092;2024-03-25T06:10:39;98649.13;;;7.30;72.25
23953;BME280;12163;49.316;6.092;2024-03-25T06:13:04;98650.59;;;6.94;72.19
23953;BME280;12163;49.316;6.092;2024-03-25T06:15:30;98658.31;;;6.72;72.05
23953;BME280;12163;49.316;6.092;2024-03-25T06:17:56;98655.03;;;6.47;73.09
23953;BME280;12163;49.316;6.092;2024-03-25T06:20:21;98659.19;;;6.29;73.37
23953;BME280;12163;49.316;6.092;2024-03-25T06:22:47;98657.66;;;6.18;73.82
23953;BME280;12163;49.316;6.092;2024-03-25T06:25:13;98662.41;;;6.31;74.10
23953;BME280;12163;49.316;6.092;2024-03-25T06:27:38;98666.16;;;6.30;73.93
23953;BME280;12163;49.316;6.092;2024-03-25T06:30:04;98663.75;;;6.29;74.11
23953;BME280;12163;49.316;6.092;2024-03-25T06:32:48;98666.19;;;6.25;74.04
23953;BME280;12163;49.316;6.092;2024-03-25T06:35:33;98675.84;;;6.21;74.60
23953;BME280;12163;49.316;6.092;2024-03-25T06:37:58;98667.03;;;6.21;74.76
23953;BME280;12163;49.316;6.092;2024-03-25T06:40:24;98662.44;;;6.21;74.98
23953;BME280;12163;49.316;6.092;2024-03-25T06:42:50;98667.81;;;6.21;74.77
23953;BME280;12163;49.316;6.092;2024-03-25T06:45:15;98667.78;;;6.26;74.45
23953;BME280;12163;49.316;6.092;2024-03-25T06:47:42;98672.00;;;6.37;74.97
23953;BME280;12163;49.316;6.092;2024-03-25T06:50:08;98675.91;;;6.50;75.04
23953;BME280;12163;49.316;6.092;2024-03-25T06:52:34;98663.28;;;6.55;74.84
23953;BME280;12163;49.316;6.092;2024-03-25T06:54:59;98665.91;;;6.60;74.50
23953;BME280;12163;49.316;6.092;2024-03-25T06:57:25;98655.69;;;6.67;74.42
23953;BME280;12163;49.316;6.092;2024-03-25T06:59:51;98664.25;;;6.69;74.12
23953;BME280;12163;49.316;6.092;2024-03-25T07:02:17;98655.13;;;6.70;73.76
23953;BME280;12163;49.316;6.092;2024-03-25T07:04:42;98661.53;;;6.74;73.91
23953;BME280;12163;49.316;6.092;2024-03-25T07:07:08;98669.50;;;6.79;73.74
23953;BME280;12163;49.316;6.092;2024-03-25T07:09:34;98665.75;;;6.80;73.69
23953;BME280;12163;49.316;6.092;2024-03-25T07:11:59;98664.41;;;6.82;73.73
23953;BME280;12163;49.316;6.092;2024-03-25T07:14:25;98659.75;;;6.88;73.78
23953;BME280;12163;49.316;6.092;2024-03-25T07:16:50;98662.38;;;6.98;73.60
23953;BME280;12163;49.316;6.092;2024-03-25T07:19:16;98652.03;;;7.10;73.38
23953;BME280;12163;49.316;6.092;2024-03-25T07:21:41;98644.91;;;7.24;73.60
23953;BME280;12163;49.316;6.092;2024-03-25T07:24:07;98650.72;;;7.31;72.76
23953;BME280;12163;49.316;6.092;2024-03-25T07:26:33;98653.97;;;7.33;72.67
23953;BME280;12163;49.316;6.092;2024-03-25T07:28:58;98654.97;;;7.37;72.61
23953;BME280;12163;49.316;6.092;2024-03-25T07:31:24;98647.66;;;7.42;72.52
23953;BME280;12163;49.316;6.092;2024-03-25T07:33:51;98655.88;;;7.51;72.47
23953;BME280;12163;49.316;6.092;2024-03-25T07:36:16;98657.63;;;7.60;72.31
23953;BME280;12163;49.316;6.092;2024-03-25T07:38:42;98659.97;;;7.67;72.14
23953;BME280;12163;49.316;6.092;2024-03-25T07:41:08;98658.25;;;7.76;71.97
23953;BME280;12163;49.316;6.092;2024-03-25T07:43:34;98660.81;;;7.86;71.97
23953;BME280;12163;49.316;6.092;2024-03-25T07:46:00;98651.59;;;7.92;71.55
23953;BME280;12163;49.316;6.092;2024-03-25T07:48:25;98655.25;;;8.01;72.08
23953;BME280;12163;49.316;6.092;2024-03-25T07:50:51;98646.94;;;8.16;71.81
23953;BME280;12163;49.316;6.092;2024-03-25T07:53:16;98644.06;;;8.31;71.49
23953;BME280;12163;49.316;6.092;2024-03-25T07:55:42;98636.34;;;8.42;71.37
23953;BME280;12163;49.316;6.092;2024-03-25T07:58:07;98642.91;;;8.55;71.20
23953;BME280;12163;49.316;6.092;2024-03-25T08:00:33;98633.84;;;8.64;70.45
23953;BME280;12163;49.316;6.092;2024-03-25T08:03:00;98637.56;;;8.68;70.16
23953;BME280;12163;49.316;6.092;2024-03-25T08:05:25;98628.31;;;8.74;69.71
23953;BME280;12163;49.316;6.092;2024-03-25T08:07:52;98628.91;;;8.71;69.22
23953;BME280;12163;49.316;6.092;2024-03-25T08:10:17;98628.69;;;8.68;69.03
23953;BME280;12163;49.316;6.092;2024-03-25T08:12:43;98627.91;;;8.67;68.77
23953;BME280;12163;49.316;6.092;2024-03-25T08:15:08;98627.09;;;8.67;68.51
23953;BME280;12163;49.316;6.092;2024-03-25T08:17:34;98623.81;;;8.70;69.04
23953;BME280;12163;49.316;6.092;2024-03-25T08:20:00;98614.13;;;8.69;68.97
23953;BME280;12163;49.316;6.092;2024-03-25T08:22:25;98615.53;;;8.66;68.78
23953;BME280;12163;49.316;6.092;2024-03-25T08:24:51;98613.41;;;8.63;68.79
23953;BME280;12163;49.316;6.092;2024-03-25T08:27:16;98605.94;;;8.60;68.52
23953;BME280;12163;49.316;6.092;2024-03-25T08:29:42;98598.88;;;8.64;69.13
23953;BME280;12163;49.316;6.092;2024-03-25T11:58:38;98252.78;;;14.51;37.72
23953;BME280;12163;49.316;6.092;2024-03-25T12:12:29;98221.03;;;14.79;36.63
23953;BME280;12163;49.316;6.092;2024-03-25T13:11:07;98077.66;;;15.92;35.14
23953;BME280;12163;49.316;6.092;2024-03-25T13:13:33;98070.91;;;15.86;35.34
23953;BME280;12163;49.316;6.092;2024-03-25T13:15:59;98084.00;;;15.81;34.85
23953;BME280;12163;49.316;6.092;2024-03-25T13:18:24;98066.25;;;15.87;35.04
23953;BME280;12163;49.316;6.092;2024-03-25T13:20:50;98066.19;;;15.83;35.15
23953;BME280;12163;49.316;6.092;2024-03-25T13:23:15;98067.78;;;15.84;35.31
23953;BME280;12163;49.316;6.092;2024-03-25T13:25:41;98066.91;;;15.80;35.23
23953;BME280;12163;49.316;6.092;2024-03-25T13:28:07;98055.47;;;15.90;34.81
23953;BME280;12163;49.316;6.092;2024-03-25T13:30:32;98056.31;;;16.10;34.86
23953;BME280;12163;49.316;6.092;2024-03-25T13:32:58;98044.03;;;16.19;35.15
23953;BME280;12163;49.316;6.092;2024-03-25T13:35:24;98038.47;;;16.31;33.54
23953;BME280;12163;49.316;6.092;2024-03-25T13:37:49;98036.47;;;16.28;33.94
23953;BME280;12163;49.316;6.092;2024-03-25T13:40:15;98041.19;;;16.31;33.40
23953;BME280;12163;49.316;6.092;2024-03-25T13:42:40;98024.16;;;16.34;33.48
23953;BME280;12163;49.316;6.092;2024-03-25T13:45:06;98017.00;;;16.45;34.23
23953;BME280;12163;49.316;6.092;2024-03-25T13:47:32;98014.31;;;16.68;33.97
23953;BME280;12163;49.316;6.092;2024-03-25T13:50:02;98000.72;;;16.90;33.31
23953;BME280;12163;49.316;6.092;2024-03-25T13:52:28;97990.22;;;17.14;33.60
23953;BME280;12163;49.316;6.092;2024-03-25T13:54:53;97998.09;;;17.42;33.53
23953;BME280;12163;49.316;6.092;2024-03-25T13:57:19;97990.06;;;17.78;32.34
23953;BME280;12163;49.316;6.092;2024-03-25T13:59:44;97983.78;;;18.04;31.12
23953;BME280;12163;49.316;6.092;2024-03-25T14:02:10;97981.94;;;18.15;31.86
23953;BME280;12163;49.316;6.092;2024-03-25T14:04:35;97973.69;;;18.41;32.01
23953;BME280;12163;49.316;6.092;2024-03-25T14:07:01;97972.44;;;18.68;30.61
23953;BME280;12163;49.316;6.092;2024-03-25T14:09:28;97963.19;;;18.82;29.79
23953;BME280;12163;49.316;6.092;2024-03-25T14:11:53;97946.72;;;19.15;29.51
23953;BME280;12163;49.316;6.092;2024-03-25T14:14:19;97945.78;;;19.48;28.69
23953;BME280;12163;49.316;6.092;2024-03-25T14:16:45;97944.31;;;19.64;28.71
23953;BME280;12163;49.316;6.092;2024-03-25T14:19:10;97941.28;;;19.76;28.95
23953;BME280;12163;49.316;6.092;2024-03-25T14:21:36;97929.31;;;20.05;28.94
23953;BME280;12163;49.316;6.092;2024-03-25T14:24:06;97929.78;;;20.35;28.68
23953;BME280;12163;49.316;6.092;2024-03-25T14:26:33;97919.69;;;20.63;27.93
23953;BME280;12163;49.316;6.092;2024-03-25T14:28:59;97925.97;;;20.85;27.58
23953;BME280;12163;49.316;6.092;2024-03-25T14:31:25;97912.69;;;20.94;27.33
23953;BME280;12163;49.316;6.092;2024-03-25T14:33:51;97913.06;;;21.17;27.19
23953;BME280;12163;49.316;6.092;2024-03-25T14:36:17;97900.88;;;21.39;26.95
23953;BME280;12163;49.316;6.092;2024-03-25T14:38:42;97903.97;;;21.58;26.79
23953;BME280;12163;49.316;6.092;2024-03-25T14:41:11;97896.16;;;21.57;25.97
23953;BME280;12163;49.316;6.092;2024-03-25T14:43:37;97894.53;;;21.70;26.46
23953;BME280;12163;49.316;6.092;2024-03-25T14:46:02;97883.94;;;21.75;26.71
23953;BME280;12163;49.316;6.092;2024-03-25T14:48:29;97878.84;;;21.74;25.83
23953;BME280;12163;49.316;6.092;2024-03-25T14:50:54;97884.41;;;21.49;25.83
23953;BME280;12163;49.316;6.092;2024-03-25T14:53:20;97875.44;;;21.24;26.10
23953;BME280;12163;49.316;6.092;2024-03-25T14:55:45;97878.22;;;21.03;26.75
23953;BME280;12163;49.316;6.092;2024-03-25T14:58:11;97871.16;;;20.92;26.71
23953;BME280;12163;49.316;6.092;2024-03-25T15:00:36;97868.41;;;20.85;26.90
23953;BME280;12163;49.316;6.092;2024-03-25T15:03:02;97871.94;;;20.89;26.85
23953;BME280;12163;49.316;6.092;2024-03-25T15:05:28;97865.28;;;20.83;26.63
23953;BME280;12163;49.316;6.092;2024-03-25T15:07:54;97854.69;;;20.99;26.73
23953;BME280;12163;49.316;6.092;2024-03-25T15:10:20;97848.41;;;21.02;26.67
23953;BME280;12163;49.316;6.092;2024-03-25T15:12:46;97847.66;;;21.01;26.11
23953;BME280;12163;49.316;6.092;2024-03-25T15:15:11;97844.53;;;20.99;26.33
23953;BME280;12163;49.316;6.092;2024-03-25T15:17:37;97838.63;;;21.01;25.77
23953;BME280;12163;49.316;6.092;2024-03-25T15:20:03;97832.72;;;21.06;26.20
23953;BME280;12163;49.316;6.092;2024-03-25T15:22:30;97836.66;;;21.08;26.07
23953;BME280;12163;49.316;6.092;2024-03-25T15:24:56;97833.09;;;21.22;26.34
23953;BME280;12163;49.316;6.092;2024-03-25T15:27:22;97829.56;;;21.32;25.99
23953;BME280;12163;49.316;6.092;2024-03-25T15:29:48;97820.09;;;21.54;25.80
23953;BME280;12163;49.316;6.092;2024-03-25T15:32:14;97824.81;;;21.39;24.90
23953;BME280;12163;49.316;6.092;2024-03-25T15:34:41;97816.63;;;21.29;25.45
23953;BME280;12163;49.316;6.092;2024-03-25T15:37:07;97828.00;;;21.27;24.96
23953;BME280;12163;49.316;6.092;2024-03-25T15:42:16;97809.19;;;21.33;24.13
23953;BME280;12163;49.316;6.092;2024-03-25T15:44:42;97812.34;;;21.17;24.96
23953;BME280;12163;49.316;6.092;2024-03-25T15:47:08;97811.97;;;21.05;24.92
23953;BME280;12163;49.316;6.092;2024-03-25T15:49:33;97802.22;;;20.90;25.41
23953;BME280;12163;49.316;6.092;2024-03-25T15:51:59;97805.34;;;20.85;25.85
23953;BME280;12163;49.316;6.092;2024-03-25T15:54:24;97799.09;;;20.88;25.52
23953;BME280;12163;49.316;6.092;2024-03-25T15:56:50;97792.00;;;20.80;25.35
23953;BME280;12163;49.316;6.092;2024-03-25T15:59:15;97784.97;;;20.72;25.76
23953;BME280;12163;49.316;6.092;2024-03-25T16:01:41;97795.53;;;20.63;25.62
23953;BME280;12163;49.316;6.092;2024-03-25T16:04:07;97785.78;;;20.38;25.74
23953;BME280;12163;49.316;6.092;2024-03-25T16:06:32;97777.94;;;20.22;25.72
23953;BME280;12163;49.316;6.092;2024-03-25T16:08:58;97774.03;;;20.20;25.65
23953;BME280;12163;49.316;6.092;2024-03-25T16:11:24;97776.75;;;20.13;25.80
23953;BME280;12163;49.316;6.092;2024-03-25T16:13:49;97777.53;;;20.10;25.92
23953;BME280;12163;49.316;6.092;2024-03-25T16:16:16;97768.13;;;20.00;26.53
23953;BME280;12163;49.316;6.092;2024-03-25T16:18:42;97761.38;;;19.73;26.04
23953;BME280;12163;49.316;6.092;2024-03-25T16:21:15;97765.19;;;19.37;26.28
23953;BME280;12163;49.316;6.092;2024-03-25T16:23:42;97755.63;;;19.03;27.53
23953;BME280;12163;49.316;6.092;2024-03-25T16:26:08;97756.28;;;18.79;27.93
23953;BME280;12163;49.316;6.092;2024-03-25T16:28:35;97753.81;;;18.61;28.66
23953;BME280;12163;49.316;6.092;2024-03-25T16:31:01;97748.91;;;18.30;28.92
23953;BME280;12163;49.316;6.092;2024-03-25T16:44:13;97750.28;;;16.30;31.67
23953;BME280;12163;49.316;6.092;2024-03-25T16:46:38;97754.28;;;16.10;32.30
23953;BME280;12163;49.316;6.092;2024-03-25T16:49:04;97750.06;;;15.93;32.54
23953;BME280;12163;49.316;6.092;2024-03-25T16:51:29;97748.28;;;15.78;32.71
23953;BME280;12163;49.316;6.092;2024-03-25T16:53:55;97749.88;;;15.60;32.72
23953;BME280;12163;49.316;6.092;2024-03-25T16:56:21;97753.06;;;15.43;33.05
23953;BME280;12163;49.316;6.092;2024-03-25T16:58:48;97753.22;;;15.31;33.38
23953;BME280;12163;49.316;6.092;2024-03-25T17:01:14;97745.47;;;15.15;34.20
23953;BME280;12163;49.316;6.092;2024-03-25T17:03:39;97737.03;;;15.01;33.70
23953;BME280;12163;49.316;6.092;2024-03-25T17:06:05;97739.72;;;14.82;34.15
23953;BME280;12163;49.316;6.092;2024-03-25T17:08:34;97741.25;;;14.64;34.78
23953;BME280;12163;49.316;6.092;2024-03-25T17:10:59;97738.94;;;14.47;35.15
23953;BME280;12163;49.316;6.092;2024-03-25T17:13:25;97739.31;;;14.30;35.46
23953;BME280;12163;49.316;6.092;2024-03-25T17:15:52;97742.81;;;14.15;36.13
23953;BME280;12163;49.316;6.092;2024-03-25T17:18:18;97732.78;;;14.00;36.12
23953;BME280;12163;49.316;6.092;2024-03-25T17:20:44;97737.13;;;13.89;36.98
23953;BME280;12163;49.316;6.092;2024-03-25T17:23:09;97725.47;;;13.73;36.35
23953;BME280;12163;49.316;6.092;2024-03-25T17:25:38;97734.41;;;13.58;36.73
23953;BME280;12163;49.316;6.092;2024-03-25T17:28:04;97730.19;;;13.45;37.04
23953;BME280;12163;49.316;6.092;2024-03-25T17:30:29;97732.97;;;13.33;37.38
23953;BME280;12163;49.316;6.092;2024-03-25T17:32:55;97724.56;;;13.23;37.47
23953;BME280;12163;49.316;6.092;2024-03-25T17:35:21;97731.25;;;13.13;38.75
23953;BME280;12163;49.316;6.092;2024-03-25T17:37:46;97726.31;;;13.03;38.74
23953;BME280;12163;49.316;6.092;2024-03-25T17:40:12;97726.44;;;12.95;39.59
23953;BME280;12163;49.316;6.092;2024-03-25T17:42:39;97723.84;;;12.86;39.06
23953;BME280;12163;49.316;6.092;2024-03-25T17:45:05;97713.53;;;12.76;40.03
23953;BME280;12163;49.316;6.092;2024-03-25T17:47:30;97712.44;;;12.65;40.65
23953;BME280;12163;49.316;6.092;2024-03-25T17:49:56;97701.31;;;12.55;40.66